MRAR weather

Atirro Airport
Turrialba, Cartago, Costa Rica

Public forecast

Using degrees Celsius for public forecast. Weather courtesy of forecast.io.

Closest aviation weather report (METAR) to Atirro Airport

Closest report is Tobias Bolanos International Airport, 29.7 nm (55.0 km) WNW. Retrieved 2019/10/14 12:00 UTC (22 minutes ago):

MRPV 141200Z 18001KT 9999 FEW025 BKN120 18/18 A3002 NOSIG

Closest aviation forecast (TAF) to Atirro Airport

Closest forecast is Tobias Bolanos International Airport, 29.7 nm (55.0 km) WNW. Retrieved 2019/10/14 12:03 UTC (19 minutes ago):

TAF MRPV 141100Z 1412/1512 26005KT 9999 SCT020 TX27/1418Z TN19/1510Z TEMPO 1422/1504 5000 RA BR BKN020